Rosalia, Kansas
Current Conditions -  °F | °C
As of 4:15 AM on Thursday 29 Jan 2015 (Local Time) from KEQA Reporting Station
Clear Clear  
Wind Chill: 41°   Ceiling: Unl
Heat Index: 48°   Visibility: 10mi
Dew Point: 34°   Wind: 23mph
Humidity: 57%   Direction: 350°N
Pressure: 30.13"   Gusts: 38mph
Location:  37.82°N, 96.62°W
Report Text: KEQA 291015Z AUTO 35020G33KT 10SM CLR 09/01 A3013 RMK AO2
Loading
Personal Weather Stations






























Interactive Weather Map New forecast layout! Learn more

10-Day Weather Forecast

Advertisements
Track Severe Weather on mobile